createdAt,value
2022-08-20T00:01:07.085Z,99957.16
2022-08-20T00:02:14.612Z,99953.78
2022-08-20T00:03:22.279Z,99957.48
2022-08-20T00:04:30.656Z,99961.20
2022-08-20T00:05:43.975Z,99952.28
2022-08-20T00:06:48.828Z,99960.53
2022-08-20T00:07:52.183Z,99953.45
2022-08-20T00:08:57.030Z,99962.87
2022-08-20T00:10:02.207Z,99959.48
2022-08-20T00:11:07.580Z,99962.17
2022-08-20T00:12:20.566Z,99963.02
2022-08-20T00:13:28.859Z,99960.02
2022-08-20T00:14:34.091Z,99978.56
2022-08-20T00:15:38.847Z,99976.70
2022-08-20T00:16:44.502Z,99974.50
2022-08-20T00:17:51.814Z,99979.72
2022-08-20T00:18:57.410Z,99969.45
2022-08-20T00:20:01.121Z,99972.33
2022-08-20T00:21:08.990Z,99975.88
2022-08-20T00:22:14.879Z,99969.97
2022-08-20T00:23:20.968Z,99971.82
2022-08-20T00:24:27.466Z,99968.96
2022-08-20T00:25:32.385Z,99973.34
2022-08-20T00:26:36.872Z,99979.41
2022-08-20T00:27:45.558Z,99977.19
2022-08-20T00:28:50.817Z,99981.73
2022-08-20T00:29:54.527Z,99978.37
2022-08-20T00:31:02.425Z,99981.25
2022-08-20T00:32:11.483Z,99980.75
2022-08-20T00:34:37.271Z,99976.53
2022-08-20T00:35:44.224Z,99974.83
2022-08-20T00:36:49.140Z,99974.50
2022-08-20T00:37:55.382Z,99968.12
2022-08-20T00:38:58.358Z,99981.42
2022-08-20T00:40:05.677Z,99978.55
2022-08-20T00:41:22.342Z,99979.39
2022-08-20T00:42:25.934Z,99979.72
2022-08-20T00:43:40.770Z,99980.41
2022-08-20T00:44:48.472Z,99987.80
2022-08-20T00:45:54.647Z,99989.64
2022-08-20T00:47:01.181Z,99982.41
2022-08-20T00:48:06.173Z,99981.07
2022-08-20T00:49:14.395Z,99979.56
2022-08-20T00:50:27.784Z,99978.87
2022-08-20T00:51:36.710Z,99978.98
2022-08-20T00:52:42.441Z,99977.81
2022-08-20T00:53:48.575Z,99981.03
2022-08-20T00:54:59.119Z,99979.66
2022-08-20T00:56:03.943Z,99976.64
2022-08-20T00:57:13.227Z,99976.29
2022-08-20T00:58:17.112Z,99975.97
2022-08-20T00:59:26.524Z,99976.29
2022-08-20T01:00:35.201Z,99978.98
2022-08-20T01:01:54.933Z,99984.05
2022-08-20T01:02:51.119Z,99981.84
2022-08-20T01:03:57.219Z,99980.16
2022-08-20T01:05:01.128Z,99972.08
2022-08-20T01:06:08.971Z,99988.72
2022-08-20T01:07:13.827Z,99980.83
2022-08-20T01:08:21.063Z,99972.59
2022-08-20T01:09:49.767Z,99980.47
2022-08-20T01:10:39.655Z,99978.11
2022-08-20T01:11:44.156Z,99975.57
2022-08-20T01:12:55.588Z,99973.36
2022-08-20T01:13:58.316Z,99976.41
2022-08-20T01:15:05.270Z,99979.95
2022-08-20T01:16:16.439Z,99971.36
2022-08-20T01:17:26.994Z,99969.55
2022-08-20T01:18:34.499Z,99972.75
2022-08-20T01:19:45.591Z,99974.09
2022-08-20T01:21:04.896Z,99973.11
2022-08-20T01:22:29.952Z,99978.50
2022-08-20T01:24:02.647Z,99971.91
2022-08-20T01:25:14.123Z,99973.92
2022-08-20T01:26:23.893Z,99965.48
2022-08-20T01:27:31.591Z,99961.30
2022-08-20T01:29:55.088Z,99953.72
2022-08-20T01:31:01.730Z,99946.81
2022-08-20T01:32:08.660Z,99948.13
2022-08-20T01:33:11.847Z,99944.80
2022-08-20T01:34:20.064Z,99958.73
2022-08-20T01:35:23.704Z,99960.74
2022-08-20T01:36:34.507Z,99961.06
2022-08-20T01:37:38.015Z,99965.08
2022-08-20T01:38:53.863Z,99966.12
2022-08-20T01:39:53.049Z,99965.97
2022-08-20T01:41:28.173Z,99959.38
2022-08-20T01:42:36.798Z,99965.80
2022-08-20T01:43:41.713Z,99961.95
2022-08-20T01:44:47.463Z,99969.66
2022-08-20T01:45:54.591Z,99959.42
2022-08-20T01:47:00.238Z,99952.03
2022-08-20T01:48:05.192Z,99949.83
2022-08-20T01:49:23.294Z,99951.19
2022-08-20T01:50:33.216Z,99949.98
2022-08-20T01:51:38.120Z,99950.66
2022-08-20T01:52:48.448Z,99957.09
2022-08-20T01:53:54.772Z,99948.13
2022-08-20T01:54:57.931Z,99944.27
2022-08-20T01:56:04.756Z,99950.50
2022-08-20T01:57:14.483Z,99943.27
2022-08-20T01:58:18.021Z,99953.03
2022-08-20T01:59:21.193Z,99952.52
2022-08-20T02:00:25.828Z,99958.53
2022-08-20T02:01:46.810Z,99959.42
2022-08-20T02:02:45.949Z,99961.10
2022-08-20T02:03:49.880Z,99960.09
2022-08-20T02:04:55.753Z,99962.80
2022-08-20T02:06:05.869Z,99956.20
2022-08-20T02:07:19.063Z,99960.78
2022-08-20T02:08:26.111Z,99962.80
2022-08-20T02:09:37.374Z,99965.29
2022-08-20T02:10:44.936Z,99963.95
2022-08-20T02:11:48.718Z,99969.51
2022-08-20T02:12:53.931Z,99962.28
2022-08-20T02:13:59.449Z,99967.02
2022-08-20T02:15:03.617Z,99964.16
2022-08-20T02:16:08.689Z,99962.80
2022-08-20T02:17:15.206Z,99961.14
2022-08-20T02:18:20.256Z,99965.00
2022-08-20T02:19:28.512Z,99959.45
2022-08-20T02:20:34.416Z,99964.00
2022-08-20T02:21:42.687Z,99974.25
2022-08-20T02:22:53.557Z,99966.33
2022-08-20T02:23:59.275Z,99962.63
2022-08-20T02:25:05.444Z,99966.17
2022-08-20T02:26:11.044Z,99968.89
2022-08-20T02:27:15.410Z,99966.52
2022-08-20T02:28:21.387Z,99970.23
2022-08-20T02:29:25.772Z,99969.55
2022-08-20T02:30:35.970Z,99974.09
2022-08-20T02:32:23.525Z,99974.92
2022-08-20T02:32:49.629Z,99974.92
2022-08-20T02:34:22.367Z,99975.28
2022-08-20T03:00:25.974Z,99969.22
2022-08-20T03:01:28.944Z,99983.33
2022-08-20T03:02:33.857Z,99968.53
2022-08-20T03:03:37.367Z,99968.53
2022-08-20T03:04:41.510Z,99966.72
2022-08-20T03:05:47.035Z,99973.27
2022-08-20T03:06:52.107Z,99960.46
2022-08-20T03:07:59.289Z,99970.55
2022-08-20T03:09:05.981Z,99964.68
2022-08-20T03:10:11.544Z,99980.31
2022-08-20T03:11:15.065Z,99968.19
2022-08-20T03:12:19.919Z,99968.02
2022-08-20T03:13:28.020Z,99973.11
2022-08-20T03:14:32.012Z,99976.48
2022-08-20T03:15:36.144Z,99983.36
2022-08-20T03:16:43.951Z,99979.83
2022-08-20T03:17:49.301Z,99981.00
2022-08-20T03:20:12.963Z,99977.78
2022-08-20T03:21:17.420Z,99994.09
2022-08-20T03:22:21.115Z,100002.70
2022-08-20T03:23:25.643Z,99995.47
2022-08-20T03:24:28.472Z,99988.42
2022-08-20T03:25:33.044Z,99992.41
2022-08-20T03:26:39.560Z,99997.62
2022-08-20T03:27:45.260Z,99997.99
2022-08-20T03:28:49.431Z,99999.68
2022-08-20T03:29:52.933Z,99999.48
2022-08-20T03:30:57.589Z,100000.69
2022-08-20T03:32:02.925Z,99992.80
2022-08-20T03:33:06.640Z,99993.45
2022-08-20T03:34:10.351Z,99993.64
2022-08-20T03:35:17.387Z,99989.59
2022-08-20T03:36:28.381Z,99990.76
2022-08-20T03:37:32.321Z,99989.10
2022-08-20T03:38:38.397Z,99981.86
2022-08-20T03:39:42.294Z,99984.61
2022-08-20T03:40:46.931Z,99981.42
2022-08-20T03:41:53.802Z,99981.06
2022-08-20T03:42:59.575Z,99979.05
2022-08-20T03:44:03.718Z,99978.72
2022-08-20T03:45:10.568Z,99976.02
2022-08-20T03:46:22.203Z,99969.95
2022-08-20T03:47:20.813Z,99973.49
2022-08-20T03:48:24.478Z,99970.28
2022-08-20T03:49:28.097Z,99963.24
2022-08-20T03:50:33.785Z,99960.36
2022-08-20T03:51:58.214Z,99964.41
2022-08-20T03:52:42.817Z,99973.48
2022-08-20T03:53:46.411Z,99964.58
2022-08-20T03:54:49.489Z,99961.88
2022-08-20T03:56:00.440Z,99964.56
2022-08-20T03:57:05.156Z,99970.63
2022-08-20T03:58:11.062Z,99968.27
2022-08-20T03:59:14.503Z,99971.28
2022-08-20T04:00:21.626Z,99976.53
2022-08-20T04:01:36.999Z,99959.02
2022-08-20T04:02:33.913Z,99970.96
2022-08-20T04:03:38.462Z,99973.33
2022-08-20T04:04:42.323Z,99970.28
2022-08-20T04:05:47.058Z,99965.58
2022-08-20T04:06:51.485Z,99966.39
2022-08-20T04:07:55.566Z,99966.90
2022-08-20T04:08:59.763Z,99963.19
2022-08-20T04:10:06.787Z,99969.73
2022-08-20T04:11:10.103Z,99959.99
2022-08-20T04:12:14.426Z,99964.20
2022-08-20T04:13:21.231Z,99969.27
2022-08-20T04:14:26.827Z,99966.54
2022-08-20T04:15:32.384Z,99974.93
2022-08-20T04:16:41.028Z,99969.53
2022-08-20T04:17:49.334Z,99968.17
2022-08-20T04:19:01.659Z,99972.73
2022-08-20T04:20:07.715Z,99966.48
2022-08-20T04:21:13.445Z,99973.69
2022-08-20T04:22:17.472Z,99967.20
2022-08-20T04:23:22.389Z,99971.48
2022-08-20T04:24:32.061Z,99968.27
2022-08-20T04:25:35.920Z,99970.14
2022-08-20T04:26:42.726Z,99967.67
2022-08-20T04:27:50.089Z,99965.52
2022-08-20T04:28:57.668Z,99976.48
2022-08-20T04:30:03.071Z,99973.28
2022-08-20T04:31:09.980Z,99974.79
2022-08-20T04:32:13.934Z,99976.94
2022-08-20T04:33:22.699Z,99969.81
2022-08-20T04:34:27.852Z,99981.38
2022-08-20T04:35:32.325Z,99982.59
2022-08-20T04:36:36.098Z,99976.93
2022-08-20T04:37:41.509Z,99975.86
2022-08-20T04:38:49.658Z,99974.98
2022-08-20T04:41:24.397Z,99968.28
2022-08-20T04:42:28.350Z,99970.08
2022-08-20T04:43:35.920Z,99973.14
2022-08-20T04:44:43.435Z,99966.63
2022-08-20T04:45:46.798Z,99973.50
2022-08-20T04:46:50.048Z,99968.77
2022-08-20T04:47:54.837Z,99961.19
2022-08-20T04:48:58.498Z,99966.23
2022-08-20T04:50:02.289Z,99959.62
2022-08-20T04:51:07.708Z,99965.25
2022-08-20T04:52:12.636Z,99969.23
2022-08-20T04:53:21.633Z,99975.81
2022-08-20T04:54:25.023Z,99965.08
2022-08-20T04:55:30.181Z,99976.84
2022-08-20T04:56:41.316Z,99962.93
2022-08-20T04:57:45.826Z,99966.05
2022-08-20T04:58:50.725Z,99964.75
2022-08-20T05:00:01.645Z,99972.22
2022-08-20T05:01:12.629Z,99963.95
2022-08-20T05:02:20.145Z,99969.32
2022-08-20T05:03:26.374Z,99961.47
2022-08-20T05:04:29.767Z,99965.34
2022-08-20T05:05:36.579Z,99962.61
2022-08-20T05:06:43.463Z,99959.17
2022-08-20T05:07:48.287Z,99956.63
2022-08-20T05:08:51.859Z,99952.23
2022-08-20T05:09:55.421Z,99960.31
2022-08-20T05:11:27.688Z,99956.44
2022-08-20T05:12:04.769Z,99961.41
2022-08-20T05:13:11.034Z,99957.85
2022-08-20T05:14:15.721Z,99963.00
2022-08-20T05:15:18.879Z,99953.95
2022-08-20T05:16:23.645Z,99961.15
2022-08-20T05:17:27.284Z,99960.02
2022-08-20T05:18:35.716Z,99964.52
2022-08-20T05:19:42.270Z,99961.45
2022-08-20T05:20:48.713Z,99966.56
2022-08-20T05:21:54.430Z,99973.05
2022-08-20T05:22:58.414Z,99972.80
2022-08-20T05:24:03.373Z,99959.05
2022-08-20T05:25:08.691Z,99958.36
2022-08-20T05:26:18.042Z,99956.71
2022-08-20T05:27:26.611Z,99955.49
2022-08-20T05:28:32.287Z,99953.92
2022-08-20T05:29:35.645Z,99954.72
2022-08-20T05:30:44.255Z,99957.44
2022-08-20T05:31:50.624Z,99954.45
2022-08-20T05:32:54.442Z,99945.44
2022-08-20T05:33:58.537Z,99953.28
2022-08-20T05:35:06.228Z,99945.02
2022-08-20T05:36:10.598Z,99954.55
2022-08-20T05:37:16.666Z,99958.45
2022-08-20T05:38:24.525Z,99955.22
2022-08-20T05:39:28.994Z,99952.41
2022-08-20T05:40:32.906Z,99948.92
2022-08-20T05:41:35.952Z,99958.36
2022-08-20T05:42:39.877Z,99953.98
2022-08-20T05:43:44.142Z,99954.02
2022-08-20T05:44:48.928Z,99957.25
2022-08-20T06:10:11.534Z,99946.21
2022-08-20T06:11:18.095Z,99943.88
2022-08-20T06:12:23.062Z,99943.45
2022-08-20T06:13:27.160Z,99936.95
2022-08-20T06:14:31.615Z,99940.75
2022-08-20T06:15:36.447Z,99943.91
2022-08-20T06:16:46.734Z,99943.27
2022-08-20T06:17:58.025Z,99948.28
2022-08-20T06:18:53.977Z,99951.64
2022-08-20T06:19:59.639Z,99954.54
2022-08-20T06:21:03.862Z,99956.09
2022-08-20T06:22:18.433Z,99965.68
2022-08-20T06:23:17.458Z,99964.09
2022-08-20T06:24:25.708Z,99964.66
2022-08-20T06:26:43.377Z,99959.56
2022-08-20T06:27:48.018Z,99960.22
2022-08-20T06:28:54.151Z,99966.44
2022-08-20T06:29:58.583Z,99965.34
2022-08-20T06:31:01.878Z,99964.08
2022-08-20T06:32:06.508Z,99968.87
2022-08-20T06:33:11.052Z,99971.04
2022-08-20T06:34:14.832Z,99966.19
2022-08-20T06:35:20.098Z,99962.46
2022-08-20T06:36:28.523Z,99970.67
2022-08-20T06:37:34.235Z,99974.30
2022-08-20T06:38:38.761Z,99972.70
2022-08-20T06:39:43.653Z,99960.52
2022-08-20T06:40:47.939Z,99965.52
2022-08-20T06:41:51.588Z,99968.73
2022-08-20T06:42:58.436Z,99979.47
2022-08-20T06:44:01.887Z,99962.79
2022-08-20T06:45:09.965Z,99969.08
2022-08-20T06:46:14.097Z,99979.89
2022-08-20T06:47:20.771Z,99993.42
2022-08-20T06:49:37.912Z,100003.31
2022-08-20T06:50:47.563Z,99993.89
2022-08-20T06:51:51.949Z,99988.93
2022-08-20T06:52:55.772Z,99978.86
2022-08-20T06:53:59.560Z,99981.52
2022-08-20T06:55:15.115Z,99990.93
2022-08-20T06:56:19.101Z,99990.93
2022-08-20T06:57:22.535Z,99998.95
2022-08-20T06:58:37.896Z,100002.23
2022-08-20T06:59:32.367Z,100010.77
2022-08-20T07:00:38.199Z,100019.61
2022-08-20T07:01:42.526Z,100029.50
2022-08-20T07:02:47.651Z,100021.11
2022-08-20T07:03:54.386Z,100034.08
2022-08-20T07:04:56.576Z,99945.98
2022-08-20T07:05:59.470Z,100057.30
2022-08-20T07:07:02.963Z,100057.30
2022-08-20T07:09:21.592Z,100063.95
2022-08-20T07:10:26.709Z,100057.70
2022-08-20T07:11:30.763Z,100065.20
2022-08-20T07:12:36.869Z,100075.84
2022-08-20T07:13:42.526Z,100078.46
2022-08-20T07:14:47.615Z,100062.86
2022-08-20T07:15:53.987Z,100045.80
2022-08-20T07:16:58.877Z,100050.79
2022-08-20T07:18:04.732Z,100050.63
2022-08-20T07:19:08.849Z,100063.55
2022-08-20T07:20:15.951Z,100066.59
2022-08-20T07:21:19.723Z,100071.83
2022-08-20T07:22:25.891Z,100082.19
2022-08-20T07:23:31.049Z,100078.08
2022-08-20T07:24:38.990Z,100078.63
2022-08-20T07:25:44.580Z,100083.75
2022-08-20T07:26:49.289Z,100077.23
2022-08-20T07:27:56.140Z,100081.84
2022-08-20T07:29:03.518Z,100078.30
2022-08-20T07:30:30.618Z,100073.22
2022-08-20T07:31:54.031Z,100075.96
2022-08-20T07:32:58.002Z,100074.27
2022-08-20T07:34:02.438Z,100068.91
2022-08-20T07:35:12.628Z,100082.98
2022-08-20T07:36:16.730Z,100081.05
2022-08-20T07:37:20.296Z,100056.67
2022-08-20T07:38:30.579Z,100057.56
2022-08-20T07:39:36.061Z,100068.44
2022-08-20T07:40:40.704Z,100059.17
2022-08-20T07:41:56.391Z,100056.34
2022-08-20T07:42:50.922Z,100057.07
2022-08-20T07:43:56.822Z,100058.38
2022-08-20T07:45:00.699Z,100053.05
2022-08-20T07:46:08.664Z,100062.12
2022-08-20T07:47:12.141Z,100064.63
2022-08-20T07:48:31.109Z,100056.36
2022-08-20T07:49:27.351Z,100068.11
2022-08-20T07:50:32.743Z,100070.80
2022-08-20T07:51:45.316Z,100059.05
2022-08-20T07:52:49.209Z,100067.86
2022-08-20T07:53:56.683Z,100058.05
2022-08-20T07:55:02.008Z,100052.27
2022-08-20T07:56:12.076Z,100051.08
2022-08-20T07:57:18.237Z,100047.23
2022-08-20T07:58:27.650Z,100053.56
2022-08-20T07:59:32.064Z,100042.79
2022-08-20T08:00:36.163Z,100048.64
2022-08-20T08:01:40.428Z,100038.45
2022-08-20T08:02:44.492Z,100039.81
2022-08-20T08:03:49.567Z,100043.48
2022-08-20T08:05:01.550Z,100028.35
2022-08-20T08:06:07.258Z,100034.86
2022-08-20T08:07:14.911Z,100030.47
2022-08-20T08:08:23.130Z,100032.98
2022-08-20T08:09:28.709Z,100027.72
2022-08-20T08:10:36.503Z,100028.55
2022-08-20T08:11:48.350Z,100029.19
2022-08-20T08:12:56.320Z,100029.54
2022-08-20T08:14:01.445Z,100026.14
2022-08-20T08:15:07.713Z,100014.21
2022-08-20T08:16:14.075Z,100015.64
2022-08-20T08:17:22.227Z,100010.95
2022-08-20T08:18:31.892Z,100012.63
2022-08-20T08:19:40.670Z,100012.63
2022-08-20T08:20:53.023Z,100010.39
2022-08-20T08:22:05.470Z,100009.28
2022-08-20T08:23:13.720Z,100007.34
2022-08-20T08:24:21.104Z,100005.41
2022-08-20T08:25:24.514Z,100002.53
2022-08-20T08:26:30.523Z,100000.88
2022-08-20T08:27:34.004Z,99991.83
2022-08-20T08:28:41.538Z,99990.83
2022-08-20T08:29:47.225Z,99988.02
2022-08-20T08:30:52.198Z,99991.55
2022-08-20T08:31:57.355Z,99986.76
2022-08-20T08:33:22.926Z,99989.34
2022-08-20T08:34:26.467Z,99987.70
2022-08-20T08:35:33.371Z,99992.73
2022-08-20T08:36:42.116Z,99985.50
2022-08-20T08:37:45.371Z,99987.13
2022-08-20T08:38:49.153Z,99975.84
2022-08-20T08:39:53.397Z,99973.58
2022-08-20T08:41:07.481Z,99978.92
2022-08-20T08:42:27.626Z,99982.76
2022-08-20T08:43:32.110Z,99984.75
2022-08-20T08:44:40.030Z,99985.30
2022-08-20T08:45:47.472Z,99984.54
2022-08-20T08:46:57.624Z,99986.91
2022-08-20T08:48:01.792Z,99990.20
2022-08-20T08:49:04.986Z,99999.02
2022-08-20T08:50:12.246Z,99991.27
2022-08-20T08:51:22.267Z,99987.69
2022-08-20T08:52:30.757Z,99981.72
2022-08-20T08:53:38.951Z,99985.07
2022-08-20T08:54:52.227Z,99983.08
2022-08-20T08:55:54.839Z,99978.76
2022-08-20T08:57:02.012Z,99990.20
2022-08-20T08:58:07.617Z,99984.20
2022-08-20T08:59:09.746Z,99990.59
2022-08-20T09:01:56.621Z,99979.51
2022-08-20T09:02:35.899Z,99981.30
2022-08-20T09:03:42.732Z,99984.93
2022-08-20T09:04:45.895Z,99979.38
2022-08-20T09:05:53.418Z,99986.55
2022-08-20T09:06:58.020Z,99985.74
2022-08-20T09:08:03.320Z,99992.15
2022-08-20T09:09:09.144Z,99990.08
2022-08-20T09:10:13.735Z,99996.28
2022-08-20T09:11:21.651Z,100003.69
2022-08-20T09:12:29.538Z,99997.38
2022-08-20T09:13:35.705Z,100002.90
2022-08-20T09:14:40.275Z,100000.02
2022-08-20T09:15:43.710Z,100003.92
2022-08-20T09:16:52.494Z,99993.51
2022-08-20T09:17:52.015Z,99991.41
2022-08-20T09:18:57.327Z,99996.36
2022-08-20T09:19:59.774Z,99998.61
2022-08-20T09:21:03.634Z,99997.36
2022-08-20T09:22:09.239Z,99988.88
2022-08-20T09:23:14.212Z,99999.64
2022-08-20T09:24:17.930Z,100004.00
2022-08-20T09:25:24.771Z,99984.97
2022-08-20T09:26:38.581Z,99989.48
2022-08-20T09:27:41.464Z,99991.72
2022-08-20T09:28:52.177Z,99993.75
2022-08-20T09:29:56.711Z,99994.95
2022-08-20T09:31:01.000Z,100001.80
2022-08-20T09:32:12.462Z,100003.28
2022-08-20T09:33:17.250Z,100005.06
2022-08-20T09:34:21.602Z,100007.22
2022-08-20T09:35:26.723Z,100007.61
2022-08-20T09:36:32.945Z,100002.26
2022-08-20T09:37:38.270Z,100011.59
2022-08-20T09:39:55.657Z,99996.98
2022-08-20T09:41:00.305Z,100000.63
2022-08-20T09:42:12.200Z,99992.84
2022-08-20T09:43:15.886Z,99994.03
2022-08-20T09:44:19.563Z,99998.22
2022-08-20T09:45:24.913Z,99995.97
2022-08-20T09:46:29.601Z,99991.66
2022-08-20T09:47:33.036Z,99996.10
2022-08-20T09:48:37.798Z,99991.74
2022-08-20T09:49:48.259Z,99998.14
2022-08-20T09:50:56.582Z,100007.32
2022-08-20T09:52:02.490Z,99999.34
2022-08-20T09:53:07.539Z,99990.12
2022-08-20T09:54:12.974Z,99998.22
2022-08-20T09:56:37.230Z,99983.89
2022-08-20T09:57:41.238Z,99989.12
2022-08-20T09:58:53.559Z,99983.66
2022-08-20T10:00:02.699Z,99986.08
2022-08-20T10:01:15.273Z,99990.39
2022-08-20T10:02:17.866Z,99992.36
2022-08-20T10:03:21.710Z,99993.94
2022-08-20T10:04:25.298Z,99986.99
2022-08-20T10:05:29.769Z,99991.36
2022-08-20T10:06:38.768Z,99989.55
2022-08-20T10:07:44.401Z,99987.64
2022-08-20T10:08:52.314Z,99978.98
2022-08-20T10:09:57.625Z,99993.73
2022-08-20T10:11:02.260Z,99990.70
2022-08-20T10:12:07.397Z,99976.58
2022-08-20T10:13:13.249Z,99990.87
2022-08-20T10:14:20.506Z,99988.16
2022-08-20T10:15:24.147Z,99980.99
2022-08-20T10:16:29.568Z,99982.69
2022-08-20T10:17:39.930Z,99981.70
2022-08-20T10:18:43.505Z,99983.48
2022-08-20T10:19:47.115Z,99985.30
2022-08-20T10:20:49.991Z,99986.43
2022-08-20T10:21:56.319Z,99988.46
2022-08-20T10:23:04.755Z,99975.60
2022-08-20T10:24:08.343Z,99977.97
2022-08-20T10:25:12.604Z,99987.27
2022-08-20T10:26:16.922Z,99973.68
2022-08-20T10:27:20.596Z,99977.67
2022-08-20T10:28:24.888Z,99979.46
2022-08-20T10:29:30.152Z,99977.95
2022-08-20T10:30:34.411Z,99974.84
2022-08-20T10:31:38.501Z,99969.30
2022-08-20T10:32:42.646Z,99971.28
2022-08-20T10:33:46.487Z,99971.47
2022-08-20T10:36:13.811Z,99979.54
2022-08-20T10:37:18.933Z,99969.34
2022-08-20T10:38:23.322Z,99977.80
2022-08-20T10:39:27.423Z,99977.42
2022-08-20T10:40:33.262Z,99978.24
2022-08-20T10:41:38.942Z,99980.77
2022-08-20T10:42:42.731Z,99978.90
2022-08-20T10:43:47.639Z,99966.69
2022-08-20T10:44:54.030Z,99969.34
2022-08-20T10:45:57.575Z,99969.50
2022-08-20T10:47:24.581Z,99967.43
2022-08-20T10:48:29.930Z,99968.44
2022-08-20T10:49:37.336Z,99974.77
2022-08-20T10:50:41.209Z,99960.73
2022-08-20T10:51:44.900Z,99963.11
2022-08-20T10:52:50.392Z,99969.69
2022-08-20T10:53:56.294Z,99968.30
2022-08-20T10:54:59.418Z,99963.34
2022-08-20T10:56:06.601Z,99961.75
2022-08-20T10:58:35.632Z,99964.06
2022-08-20T10:59:35.231Z,99963.14
2022-08-20T11:00:42.489Z,99962.25
2022-08-20T11:01:46.131Z,99963.90
2022-08-20T11:02:51.455Z,99956.05
2022-08-20T11:03:56.044Z,99956.11
2022-08-20T11:05:00.004Z,99956.81
2022-08-20T11:06:04.089Z,99951.34
2022-08-20T11:07:14.718Z,99950.38
2022-08-20T11:08:33.337Z,99948.20
2022-08-20T11:10:39.676Z,99942.53
2022-08-20T11:11:45.120Z,99936.31
2022-08-20T11:12:48.168Z,99937.64
2022-08-20T11:13:51.988Z,99929.65
2022-08-20T11:14:56.036Z,99926.27
2022-08-20T11:15:59.691Z,99938.95
2022-08-20T11:17:08.096Z,99938.31
2022-08-20T11:18:14.451Z,99937.16
2022-08-20T11:19:18.169Z,99929.89
2022-08-20T11:20:26.687Z,99936.67
2022-08-20T11:21:30.760Z,99930.27
2022-08-20T11:22:35.285Z,99935.97
2022-08-20T11:23:40.486Z,99933.97
2022-08-20T11:24:47.090Z,99938.58
2022-08-20T11:25:50.144Z,99935.97
2022-08-20T11:26:54.261Z,99929.08
2022-08-20T11:27:59.512Z,99938.07
2022-08-20T11:29:04.023Z,99930.59
2022-08-20T11:30:11.797Z,99936.56
2022-08-20T11:31:15.577Z,99928.45
2022-08-20T11:32:19.806Z,99929.72
2022-08-20T11:33:23.212Z,99924.80
2022-08-20T11:34:26.749Z,99931.48
2022-08-20T11:35:49.757Z,99917.55
2022-08-20T11:36:42.312Z,99909.58
2022-08-20T11:37:45.250Z,99920.27
2022-08-20T11:38:51.956Z,99914.56
2022-08-20T11:39:55.854Z,99919.22
2022-08-20T11:40:59.604Z,99918.26
2022-08-20T11:42:03.492Z,99914.91
2022-08-20T11:43:15.162Z,99911.45
2022-08-20T11:44:21.251Z,99912.41
2022-08-20T11:45:16.978Z,99912.05
2022-08-20T11:46:23.416Z,99911.29
2022-08-20T11:47:30.522Z,99910.97
2022-08-20T11:48:34.862Z,99905.66
2022-08-20T11:49:38.660Z,99902.09
2022-08-20T11:50:43.381Z,99903.73
2022-08-20T11:51:49.883Z,99898.16
2022-08-20T11:52:54.046Z,99904.47
2022-08-20T11:53:58.239Z,99902.43
2022-08-20T11:55:03.105Z,99901.24
2022-08-20T11:56:08.581Z,99901.83
2022-08-20T11:57:21.701Z,99908.48
2022-08-20T11:58:28.646Z,99908.25
2022-08-20T11:59:32.955Z,99903.73
2022-08-20T12:00:42.052Z,99910.53
2022-08-20T12:02:02.200Z,99916.45
2022-08-20T12:02:52.609Z,99904.61
2022-08-20T12:04:00.546Z,99910.89
2022-08-20T12:05:05.088Z,99911.47
2022-08-20T12:06:08.855Z,99909.69
2022-08-20T12:07:15.489Z,99904.61
2022-08-20T12:08:26.866Z,99906.52
2022-08-20T12:09:26.175Z,99911.45
2022-08-20T12:10:32.531Z,99907.70
2022-08-20T12:11:36.279Z,99908.56
2022-08-20T12:12:39.727Z,99913.51
2022-08-20T12:13:49.210Z,99912.78
2022-08-20T12:14:57.314Z,99909.34
2022-08-20T12:16:01.555Z,99914.16
2022-08-20T12:17:11.324Z,99909.19
2022-08-20T12:18:15.814Z,99915.86
2022-08-20T12:19:19.921Z,99908.38
2022-08-20T12:20:28.351Z,99913.83
2022-08-20T12:21:32.593Z,99909.23
2022-08-20T12:22:38.511Z,99907.55
2022-08-20T12:23:41.541Z,99913.73
2022-08-20T12:24:44.348Z,99907.79
2022-08-20T12:25:50.114Z,99910.16
2022-08-20T12:26:57.159Z,99911.21
2022-08-20T12:28:00.260Z,99907.16
2022-08-20T12:29:04.495Z,99907.88
2022-08-20T12:30:16.705Z,99910.98
2022-08-20T12:31:21.046Z,99909.42
2022-08-20T12:32:27.005Z,99898.34
2022-08-20T12:33:31.554Z,99911.69
2022-08-20T12:34:38.313Z,99906.80
2022-08-20T12:35:43.225Z,99898.94
2022-08-20T12:36:47.759Z,99903.19
2022-08-20T12:37:51.858Z,99902.83
2022-08-20T12:38:55.673Z,99898.82
2022-08-20T12:40:01.903Z,99892.54
2022-08-20T12:41:08.810Z,99896.11
2022-08-20T12:42:16.318Z,99896.69
2022-08-20T12:43:24.805Z,99890.98
2022-08-20T12:44:28.511Z,99895.63
2022-08-20T12:45:33.835Z,99892.66
2022-08-20T12:46:39.690Z,99897.51
2022-08-20T12:47:47.373Z,99895.63
2022-08-20T12:48:51.487Z,99891.22
2022-08-20T12:49:59.281Z,99887.08
2022-08-20T12:51:04.001Z,99891.45
2022-08-20T12:52:07.748Z,99891.81
2022-08-20T12:53:11.246Z,99894.80
2022-08-20T12:54:14.926Z,99887.67
2022-08-20T12:55:19.688Z,99893.12
2022-08-20T12:56:30.048Z,99887.75
2022-08-20T12:57:36.778Z,99886.23
2022-08-20T12:58:39.922Z,99896.36
2022-08-20T12:59:43.766Z,99892.31
2022-08-20T13:00:51.400Z,99896.95
2022-08-20T13:01:56.107Z,99893.27
2022-08-20T13:03:02.627Z,99897.31
2022-08-20T13:04:06.108Z,99896.61
2022-08-20T13:05:11.906Z,99864.44
2022-08-20T13:06:15.586Z,99891.10
2022-08-20T13:07:19.240Z,99897.67
2022-08-20T13:08:22.945Z,99899.08
2022-08-20T13:09:25.603Z,99900.27
2022-08-20T13:10:33.256Z,99896.84
2022-08-20T13:11:37.219Z,99884.69
2022-08-20T13:12:40.984Z,99891.95
2022-08-20T13:13:45.489Z,99900.39
2022-08-20T13:14:51.530Z,99896.11
2022-08-20T13:15:55.133Z,99895.98
2022-08-20T13:17:00.814Z,99898.25
2022-08-20T13:18:06.541Z,99886.00
2022-08-20T13:19:14.256Z,99888.14
2022-08-20T13:20:21.719Z,99884.17
2022-08-20T13:21:30.950Z,99887.75
2022-08-20T13:22:40.278Z,99889.41
2022-08-20T13:23:43.980Z,99890.95
2022-08-20T13:24:48.376Z,99889.88
2022-08-20T13:25:52.023Z,99889.13
2022-08-20T13:26:58.403Z,99887.84
2022-08-20T13:28:05.941Z,99889.56
2022-08-20T13:29:09.516Z,99891.92
2022-08-20T13:30:19.426Z,99882.23
2022-08-20T13:31:23.003Z,99882.49
2022-08-20T13:32:27.372Z,99879.37
2022-08-20T13:33:30.946Z,99875.35
2022-08-20T13:34:37.772Z,99875.64
2022-08-20T13:35:42.916Z,99883.27
2022-08-20T13:36:45.886Z,99874.22
2022-08-20T13:37:51.377Z,99876.28
2022-08-20T13:38:58.051Z,99877.41
2022-08-20T13:40:03.994Z,99881.59
2022-08-20T13:41:10.235Z,99880.44
2022-08-20T13:42:13.992Z,99873.91
2022-08-20T13:43:17.519Z,99877.41
2022-08-20T13:44:21.111Z,99868.00
2022-08-20T13:45:27.641Z,99868.16
2022-08-20T13:46:31.421Z,99873.97
2022-08-20T13:47:37.747Z,99876.03
2022-08-20T13:48:40.382Z,99864.77
2022-08-20T13:49:45.306Z,99869.47
2022-08-20T13:50:49.347Z,99879.84
2022-08-20T13:51:56.635Z,99873.05
2022-08-20T13:53:03.564Z,99873.99
2022-08-20T13:54:07.133Z,99866.80
2022-08-20T13:55:15.020Z,99864.87
2022-08-20T13:56:20.359Z,99863.63
2022-08-20T13:57:25.948Z,99867.31
2022-08-20T13:58:30.627Z,99869.47
2022-08-20T14:00:51.448Z,99859.28
2022-08-20T14:01:55.224Z,99856.44